Saint Paul, AK

3:35 AM HST on February 14, 2016 (GMT -1000)
Saint Paul Island | | Change Station
CLOSE
Current Station
Airport
Location: Saint Paul Island,
Elevation: 30 ft
Nearby Weather Stations

Elev 30 ft 57.16 °N, 170.22 °W | Updated 42 minutes ago

Overcast
Overcast
35 °F
Feels Like 27 °F
N
12
Wind Variable Wind from ENE

Today
High -- | Low -- °F
--% Chance of Precip.
Yesterday
High -- | Low -- °F
Precip. -- in
Pressure 29.18 in
Visibility 3.0 miles
Clouds Overcast 700 ft
Windchill 27 °F
Dew Point 34 °F
Humidity 96%
Rainfall 0.00 in
Snow Depth Not available.
8:52 AM 6:18 PM
Waxing Crescent, 41% visible
METAR PASN 141253Z 06010KT 3SM BR OVC007 02/01 A2917 RMK RAB1157E36 SLP879 P0000 T00170011 VIA AUTODIAL
Pressure 29.18 in
Visibility 3.0 miles
Clouds Overcast 700 ft
Windchill 27 °F
Dew Point 34 °F
Humidity 96%
Rainfall 0.00 in
Snow Depth Not available.
8:52 AM 6:18 PM
Waxing Crescent, 41% visible
METAR PASN 141253Z 06010KT 3SM BR OVC007 02/01 A2917 RMK RAB1157E36 SLP879 P0000 T00170011 VIA AUTODIAL

10-Day Weather Forecast

Almanac

Astronomy

Feb. 14, 2016 Rise Set
Actual Time
Civil Twilight
Nautical Twilight
Astronomical Twilight
Moon
Length of Visible Light
Length of Day
Tomorrow will be .
, % of the Moon is Illuminated

Today's Extremes

State Highs State Lows

Community

WunderPhotos

Upload Photos

1,892,790 photos uploaded!

WunderBlog® & News

Nearby

Air Quality

  Air Quality AQ Index Pollutant
Not available.

Snow Depth

Station Depth Elevation

Earthquake Activity

City Distance Mag. Time & Date
Minimum magnitude displayed is 2.5.

Coastal Water Temperatures

Place Temperature

Stations

Nearby Weather Stations

Station Location Temp. Windchill Dew Point Humidity Wind Precip. Elev Updated Type
                   

Watches & Warnings

There are currently no watches in effect.